KMCB/MCB METAR and TAF weather

Enter ICAO airport designator
Station Type Date Time Source
KMCB METAR 2021/10/24 20:53 UTC NOAA

KMCB 242053Z AUTO 14006KT 10SM FEW027 SCT035 SCT120 27/22 A2992 RMK AO2 SLP126 T02670217 58002


Station Type Date Time Source
KMCB Decoded METAR 2021/10/24 20:53 UTC NOAA

MCCOMB/PIKE COUNTY AIRPORT, MS, United States (KMCB) 31-11N 90-28W 124M
Oct 24, 2021 - 04:53 PM EDT / 2021.10.24 2053 UTC
Wind: from the SE (140 degrees) at 7 MPH (6 KT):0
Visibility: 10 mile(s):0
Sky conditions: partly cloudy
Temperature: 80.1 F (26.7 C)
Dew Point: 71.1 F (21.7 C)
Relative Humidity: 74%
Pressure (altimeter): 29.92 in. Hg (1013 hPa)
Pressure tendency: 0.01 inches (0.2 hPa) lower than three hours ago
ob: KMCB 242053Z AUTO 14006KT 10SM FEW027 SCT035 SCT120 27/22 A2992 RMK AO2 SLP126 T02670217 58002
cycle: 21

Station Type Date Time Source
KMCB TAF 2021/10/24 18:42 UTC NOAA

TAF KMCB 241741Z 2418/2518 16010KT P6SM SCT025 BKN060
FM250800 VRB03KT 3SM BR BKN003
FM251100 00000KT 1/2SM FG OVC002
FM251400 26005KT 3SM BR BKN003
FM251600 29007KT P6SM SCT008 BKN020
FM251700 29008KT P6SM SCT020

Example: see airport list